Koninklijk Nederlands Meteorologisch Instituut; Ministerie van Verkeer en Waterstaat

 
Weer
Nederlandse vliegveldverwachtingen (TAF)
Luchtvaartmeteorologische informatie voor operationeel gebruik en vluchtvoorbereiding is beschikbaar op www.luchtvaartmeteo.nl, voor toelichting zie hier.
ZCZC
FT272300 EHAM     AMSTERDAM/SCHIPHOL   NLD   -3 m.
TAF EHAM 272252Z 2800/2906 21008KT 9999 FEW020 SCT040
    PROB30 TEMPO 2800/2806 7000 -SHRA FEW013 FEW025CB
    PROB30 2803/2807 6000 SCT006
    BECMG 2807/2810 25015KT
    BECMG 2817/2820 19005KT CAVOK=

ZCZC
FT272300 EHBK     MAASTRICHT/MAASTRICHT-AACHEN   NLD   114 m.
TAF EHBK 272244Z 2800/2906 21006KT 9999 SCT010 BKN020
    PROB30 2800/2808 4000 BR BKN009=

ZCZC
FT272300 EHRD     ROTTERDAM/THE HAGUE AIRPORT   NLD   -5 m.
TAF EHRD 272244Z 2800/2906 21008KT 9999 FEW020 SCT040
    PROB30 TEMPO 2800/2806 7000 -SHRA FEW013 FEW025CB
    PROB30 2803/2807 6000 SCT006
    BECMG 2807/2810 25015KT
    BECMG 2817/2820 19005KT CAVOK=

ZCZC
FT272300 EHEH     EINDHOVEN/EINDHOVEN   NLD   22 m.
TAF EHEH 272342Z 2800/2906 21005KT 6000 NSC
    TEMPO 2800/2802 SCT005 BKN007
    PROB40 2802/2806 3000 BR
    BECMG 2805/2808 9999 SCT012
    BECMG 2808/2810 SCT020
    BECMG 2818/2820 VRB03KT
    PROB30 2903/2906 4500 BR MIFG=

ZCZC
FT272300 EHGG AAA GRONINGEN/EELDE   NLD   5 m.
TAF AMD EHGG 280218Z 2802/2906 21010KT 2500 BR BKN006
    PROB40 2802/2807 7000
    BECMG 2807/2810 24011KT 9999 NSW SCT025
    BECMG 2817/2820 19005KT
    PROB30 TEMPO 2900/2906 5000 BR MIFG=

ZCZC
FC280400 EHWO     WOENSDRECHT/WOENSDRECHT   NLD   19 m.
TAF EHWO 280420Z 2805/2817 22007KT CAVOK
    TEMPO 2806/2808 SCT005
    BECMG 2808/2810 SCT020
    BECMG 2815/2817 VRB02KT=

ZCZC
FC280400 EHVK     VOLKEL/VOLKEL   NLD   21 m.
TAF EHVK 280455Z 2805/2817 22006KT 3000 BR SCT005
    BECMG 2806/2808 9999 NSW SCT012
    BECMG 2808/2810 SCT025=

ZCZC
FC280400 EHLW     LEEUWARDEN/LEEUWARDEN   NLD   1 m.
TAF EHLW 280455Z 2805/2817 20006KT 4000 BR
    PROB30 TEMPO 2805/2817 4500 SHRA SCT020CB
    BECMG 2806/2808 9999 NSW FEW012 SCT015
    BECMG 2808/2810 25012KT FEW020 SCT025=

ZCZC
FC280400 EHGR     GILZE-RIJEN/GILZE-RIJEN   NLD   14 m.
TAF EHGR 280452Z 2805/2817 21006KT 4000 BR SCT005
    BECMG 2806/2808 9999 NSW SCT012
    BECMG 2808/2810 SCT025
    BECMG 2815/2817 VRB03KT=

ZCZC
FC280400 EHKD     DE KOOY/DE KOOY   NLD   1 m.
TAF EHKD 280454Z 2805/2817 24011KT 9999 FEW012 SCT015
    PROB30 TEMPO 2805/2817 4500 SHRA SCT020CB
    BECMG 2807/2809 FEW020 SCT025=